createdAt,value
2018-11-21T00:03:56.258Z,79.31
2018-11-21T00:10:01.804Z,79.55
2018-11-21T00:16:06.440Z,79.55
2018-11-21T00:22:11.109Z,79.71
2018-11-21T00:28:15.733Z,79.57
2018-11-21T00:34:20.399Z,79.51
2018-11-21T00:40:25.026Z,79.52
2018-11-21T00:46:29.677Z,79.27
2018-11-21T00:52:34.287Z,79.42
2018-11-21T00:58:38.926Z,79.25
2018-11-21T01:04:43.550Z,79.12
2018-11-21T01:10:48.194Z,79.01
2018-11-21T01:16:52.862Z,78.85
2018-11-21T01:22:57.480Z,79.20
2018-11-21T01:29:02.095Z,78.68
2018-11-21T01:35:07.806Z,78.53
2018-11-21T01:41:12.950Z,79.08
2018-11-21T01:47:17.604Z,79.38
2018-11-21T01:53:22.281Z,79.21
2018-11-21T01:59:26.871Z,79.36
2018-11-21T02:05:31.530Z,79.00
2018-11-21T02:11:36.170Z,79.77
2018-11-21T02:17:40.789Z,79.30
2018-11-21T02:23:45.421Z,79.86
2018-11-21T02:29:50.051Z,79.98
2018-11-21T02:35:54.681Z,80.30
2018-11-21T02:41:59.294Z,80.14
2018-11-21T02:48:03.941Z,80.32
2018-11-21T02:54:08.577Z,80.18
2018-11-21T03:00:22.369Z,80.00
2018-11-21T03:06:26.966Z,80.59
2018-11-21T03:12:32.254Z,80.32
2018-11-21T03:18:36.954Z,80.08
2018-11-21T03:24:41.603Z,80.47
2018-11-21T03:30:46.231Z,80.82
2018-11-21T03:36:52.163Z,80.82
2018-11-21T03:42:56.779Z,81.06
2018-11-21T03:49:01.419Z,80.83
2018-11-21T03:55:06.927Z,80.83
2018-11-21T04:01:11.568Z,80.79
2018-11-21T04:13:20.837Z,80.59
2018-11-21T04:19:25.501Z,80.44
2018-11-21T04:25:30.155Z,80.15
2018-11-21T04:31:34.776Z,80.31
2018-11-21T04:37:39.414Z,80.49
2018-11-21T04:43:44.035Z,80.25
2018-11-21T04:49:48.646Z,80.25
2018-11-21T04:55:53.259Z,80.06
2018-11-21T05:01:57.885Z,80.28
2018-11-21T05:08:02.517Z,80.20
2018-11-21T05:14:07.387Z,79.92
2018-11-21T05:20:12.025Z,80.35
2018-11-21T05:26:16.670Z,79.26
2018-11-21T05:32:21.293Z,79.86
2018-11-21T05:38:25.925Z,80.05
2018-11-21T05:44:31.530Z,80.15
2018-11-21T05:50:35.596Z,79.84
2018-11-21T05:56:40.232Z,80.16
2018-11-21T06:02:45.824Z,80.15
2018-11-21T06:08:50.451Z,80.52
2018-11-21T06:14:55.143Z,80.38
2018-11-21T06:20:59.805Z,79.08
2018-11-21T06:27:04.668Z,79.77
2018-11-21T06:33:09.311Z,79.36
2018-11-21T06:39:13.935Z,79.44
2018-11-21T06:45:18.654Z,79.77
2018-11-21T06:51:23.289Z,79.87
2018-11-21T06:57:30.134Z,79.64
2018-11-21T07:03:34.766Z,79.07
2018-11-21T07:09:39.433Z,80.04
2018-11-21T07:15:44.047Z,79.67
2018-11-21T07:21:48.676Z,80.26
2018-11-21T07:27:53.278Z,79.92
2018-11-21T07:33:57.897Z,80.24
2018-11-21T07:40:02.503Z,80.27
2018-11-21T07:46:07.141Z,80.00
2018-11-21T07:52:11.787Z,79.58
2018-11-21T07:58:18.451Z,78.96
2018-11-21T08:04:31.046Z,78.45
2018-11-21T08:10:54.653Z,78.29
2018-11-21T08:17:16.858Z,78.35
2018-11-21T08:23:39.292Z,78.04
2018-11-21T08:29:43.900Z,77.49
2018-11-21T08:35:48.680Z,77.02
2018-11-21T08:41:53.315Z,75.45
2018-11-21T08:47:58.109Z,75.60
2018-11-21T08:54:02.749Z,74.83
2018-11-21T09:00:10.747Z,75.13
2018-11-21T09:06:15.375Z,74.91
2018-11-21T09:12:20.033Z,74.32
2018-11-21T09:18:24.656Z,72.84
2018-11-21T09:24:29.320Z,73.39
2018-11-21T09:30:33.965Z,73.99
2018-11-21T09:36:38.561Z,74.71
2018-11-21T09:42:44.430Z,74.25
2018-11-21T09:48:49.073Z,72.87
2018-11-21T09:54:53.700Z,72.04
2018-11-21T10:01:53.458Z,72.40
2018-11-21T10:08:16.822Z,72.07
2018-11-21T10:14:21.513Z,71.00
2018-11-21T10:20:26.142Z,71.89
2018-11-21T10:26:30.788Z,72.30
2018-11-21T10:32:35.430Z,71.45
2018-11-21T10:38:40.054Z,72.42
2018-11-21T10:44:44.673Z,73.68
2018-11-21T10:50:49.301Z,74.52
2018-11-21T10:56:53.933Z,75.09
2018-11-21T11:03:04.958Z,73.78
2018-11-21T11:09:33.892Z,73.21
2018-11-21T11:16:13.075Z,75.74
2018-11-21T11:22:42.673Z,75.67
2018-11-21T11:29:12.409Z,76.17
2018-11-21T11:35:48.264Z,75.76
2018-11-21T11:42:23.962Z,75.28
2018-11-21T11:48:46.096Z,73.67
2018-11-21T11:55:12.772Z,74.26
2018-11-21T12:01:35.036Z,74.04
2018-11-21T12:08:04.509Z,74.01
2018-11-21T12:14:33.951Z,74.01
2018-11-21T12:20:56.360Z,74.06
2018-11-21T12:27:18.499Z,74.42
2018-11-21T12:33:40.909Z,73.98
2018-11-21T12:40:03.386Z,73.31
2018-11-21T12:46:21.723Z,74.04
2018-11-21T12:52:54.224Z,74.31
2018-11-21T12:59:17.835Z,73.16
2018-11-21T13:05:44.378Z,73.81
2018-11-21T13:12:13.780Z,73.40
2018-11-21T13:18:46.434Z,73.83
2018-11-21T13:25:10.012Z,73.91
2018-11-21T13:31:45.486Z,74.80
2018-11-21T13:38:09.082Z,74.50
2018-11-21T13:44:35.808Z,74.62
2018-11-21T13:51:17.661Z,74.56
2018-11-21T13:57:22.293Z,74.78
2018-11-21T14:03:27.023Z,75.54
2018-11-21T14:09:31.782Z,77.65
2018-11-21T14:15:36.403Z,75.87
2018-11-21T14:21:41.058Z,75.65
2018-11-21T14:27:45.911Z,76.10
2018-11-21T14:33:50.344Z,76.24
2018-11-21T14:39:55.005Z,75.48
2018-11-21T14:45:59.624Z,76.02
2018-11-21T14:52:04.269Z,76.12
2018-11-21T14:58:08.890Z,75.44
2018-11-21T15:04:13.556Z,76.43
2018-11-21T15:10:18.270Z,76.26
2018-11-21T15:16:22.920Z,76.23
2018-11-21T15:22:27.564Z,76.41
2018-11-21T15:28:32.425Z,75.59
2018-11-21T15:34:37.087Z,75.56
2018-11-21T15:40:46.932Z,75.15
2018-11-21T15:46:46.395Z,74.34
2018-11-21T15:52:53.014Z,75.21
2018-11-21T15:58:55.647Z,75.50
2018-11-21T16:05:00.677Z,76.55
2018-11-21T16:11:05.286Z,76.48
2018-11-21T16:17:09.902Z,76.83
2018-11-21T16:23:14.529Z,76.94
2018-11-21T16:29:19.196Z,76.44
2018-11-21T16:35:23.881Z,75.83
2018-11-21T16:41:28.544Z,75.58
2018-11-21T16:47:33.176Z,76.41
2018-11-21T16:53:37.792Z,76.89
2018-11-21T16:59:42.439Z,76.53
2018-11-21T17:05:47.088Z,76.62
2018-11-21T17:11:51.765Z,76.76
2018-11-21T17:17:56.422Z,77.07
2018-11-21T17:24:01.063Z,77.33
2018-11-21T17:30:08.315Z,77.50
2018-11-21T17:36:12.951Z,77.66
2018-11-21T17:42:17.600Z,77.82
2018-11-21T17:48:22.243Z,77.97
2018-11-21T17:54:26.885Z,77.82
2018-11-21T18:00:32.411Z,78.33
2018-11-21T18:06:37.070Z,78.69
2018-11-21T18:12:42.064Z,79.01
2018-11-21T18:18:46.736Z,79.51
2018-11-21T18:24:51.368Z,80.09
2018-11-21T18:30:56.094Z,80.28
2018-11-21T18:37:00.732Z,80.68
2018-11-21T18:43:05.506Z,81.06
2018-11-21T18:49:10.173Z,81.66
2018-11-21T18:55:18.128Z,82.06
2018-11-21T19:01:22.775Z,82.74
2018-11-21T19:07:27.429Z,82.83
2018-11-21T19:13:32.463Z,83.04
2018-11-21T19:19:37.162Z,82.68
2018-11-21T19:25:41.863Z,82.95
2018-11-21T19:31:46.536Z,83.38
2018-11-21T19:37:51.175Z,83.80
2018-11-21T19:43:55.815Z,83.84
2018-11-21T19:50:00.474Z,84.36
2018-11-21T19:56:05.161Z,84.52
2018-11-21T20:02:09.801Z,84.41
2018-11-21T20:08:14.408Z,84.45
2018-11-21T20:14:19.085Z,84.71
2018-11-21T20:20:24.198Z,84.20
2018-11-21T20:26:28.851Z,84.32
2018-11-21T20:32:33.504Z,84.81
2018-11-21T20:38:38.152Z,84.31
2018-11-21T20:44:42.799Z,84.92
2018-11-21T20:50:47.447Z,85.05
2018-11-21T20:56:52.107Z,85.19
2018-11-21T21:02:56.903Z,85.35
2018-11-21T21:09:01.614Z,85.25
2018-11-21T21:15:08.436Z,85.60
2018-11-21T21:21:15.848Z,85.61
2018-11-21T21:27:17.750Z,85.37
2018-11-21T21:33:22.403Z,85.59
2018-11-21T21:39:27.045Z,85.53
2018-11-21T21:45:32.262Z,85.47
2018-11-21T21:51:36.936Z,85.48
2018-11-21T21:57:41.581Z,85.08
2018-11-21T22:03:46.285Z,85.28
2018-11-21T22:09:50.973Z,85.26
2018-11-21T22:15:55.601Z,85.12
2018-11-21T22:22:00.283Z,85.22
2018-11-21T22:28:04.943Z,85.50
2018-11-21T22:34:09.595Z,85.44
2018-11-21T22:40:15.698Z,85.57
2018-11-21T22:46:20.318Z,85.58
2018-11-21T22:52:24.975Z,85.84
2018-11-21T22:58:29.629Z,85.53
2018-11-21T23:04:34.265Z,85.62
2018-11-21T23:10:38.894Z,85.15
2018-11-21T23:16:43.528Z,84.65
2018-11-21T23:22:48.169Z,84.10
2018-11-21T23:28:52.959Z,84.79
2018-11-21T23:34:57.655Z,84.17
2018-11-21T23:41:02.288Z,84.85
2018-11-21T23:47:06.914Z,84.80
2018-11-21T23:53:11.527Z,84.63
2018-11-21T23:59:16.225Z,84.57
